Time;durP1;ratioP1;P1;durP2;ratioP2;P2;SDS_P1;SDS_P2;PMS_P1;PMS_P2;Temp;Humidity;BMP_temperature;BMP_pressure;BME280_temperature;BME280_humidity;BME280_pressure;Samples;Min_cycle;Max_cycle;Signal;HPM_P1;HPM_P2
2021/12/27 06:49:14;;;;;;;4.53;3.00;;;;;;;;;;10459630;28;20893;-80
2021/12/27 06:54:15;;;;;;;3.83;2.80;;;;;;;;;;10457511;28;20083;-80
2021/12/27 06:59:16;;;;;;;4.65;3.40;;;;;;;;;;10471699;28;20113;-80
2021/12/27 07:04:17;;;;;;;5.22;3.70;;;;;;;;;;10474255;28;20041;-80
2021/12/27 07:09:18;;;;;;;4.35;3.63;;;;;;;;;;10467654;28;20410;-80
2021/12/27 07:14:19;;;;;;;4.07;3.60;;;;;;;;;;10466387;28;20053;-80
2021/12/27 07:19:20;;;;;;;4.07;2.88;;;;;;;;;;10466939;28;20039;-80
2021/12/27 07:24:22;;;;;;;3.10;2.70;;;;;;;;;;10465594;28;20594;-80
2021/12/27 07:29:23;;;;;;;3.45;2.75;;;;;;;;;;10466800;28;20021;-81
2021/12/27 07:34:24;;;;;;;4.10;3.40;;;;;;;;;;10467514;28;20029;-80
2021/12/27 07:39:26;;;;;;;3.70;2.78;;;;;;;;;;10486648;28;20107;-81
2021/12/27 07:44:27;;;;;;;3.45;2.80;;;;;;;;;;10464229;28;20035;-81
2021/12/27 07:49:28;;;;;;;4.35;3.47;;;;;;;;;;10463385;28;20124;-80
2021/12/27 07:54:29;;;;;;;;;;;;;;;;;;10462785;28;20132;-80
2021/12/27 07:59:30;;;;;;;3.50;3.00;;;;;;;;;;10438300;28;19911;-79
2021/12/27 08:04:31;;;;;;;;;;;;;;;;;;10434183;28;20044;-81
2021/12/27 08:09:37;;;;;;;4.47;2.40;;;;;;;;;;10436507;28;19909;-80
2021/12/27 08:14:39;;;;;;;3.95;3.13;;;;;;;;;;10441645;28;20038;-82
2021/12/27 08:19:40;;;;;;;6.25;4.30;;;;;;;;;;10438823;28;20048;-82
2021/12/27 08:24:41;;;;;;;;;;;;;;;;;;10429347;28;20063;-82
2021/12/27 08:29:42;;;;;;;5.18;4.53;;;;;;;;;;10425666;28;19909;-81
2021/12/27 08:34:43;;;;;;;;;;;;;;;;;;10435022;28;20099;-82
2021/12/27 08:39:44;;;;;;;6.60;4.57;;;;;;;;;;10424756;28;19919;-82
2021/12/27 08:44:45;;;;;;;;;;;;;;;;;;10424954;28;20037;-82
2021/12/27 08:49:46;;;;;;;8.35;7.15;;;;;;;;;;10428863;28;20264;-82
2021/12/27 08:54:52;;;;;;;8.07;6.10;;;;;;;;;;10450464;28;20037;-83
2021/12/27 08:59:54;;;;;;;6.57;5.20;;;;;;;;;;10433964;28;20501;-82
2021/12/27 09:05:04;;;;;;;7.18;5.93;;;;;;;;;;10428206;28;20029;-80
2021/12/27 09:10:06;;;;;;;7.07;5.35;;;;;;;;;;10424537;28;20460;-80
2021/12/27 09:15:08;;;;;;;7.18;4.60;;;;;;;;;;10424120;28;20498;-80
2021/12/27 09:20:09;;;;;;;7.45;5.88;;;;;;;;;;10423655;28;20021;-81
2021/12/27 09:25:10;;;;;;;6.20;4.95;;;;;;;;;;10422559;28;20033;-80
2021/12/27 09:30:11;;;;;;;;;;;;;;;;;;10423814;28;20022;-80
2021/12/27 09:35:13;;;;;;;4.88;3.92;;;;;;;;;;10423063;28;19912;-80
2021/12/27 09:40:14;;;;;;;6.47;4.20;;;;;;;;;;10423184;28;20037;-80
2021/12/27 09:45:15;;;;;;;5.70;4.30;;;;;;;;;;10423424;28;20065;-82
2021/12/27 09:50:18;;;;;;;;;;;;;;;;;;10448352;28;20013;-80
2021/12/27 09:55:20;;;;;;;6.43;3.90;;;;;;;;;;10424373;28;19952;-80
2021/12/27 10:00:22;;;;;;;4.78;3.63;;;;;;;;;;10428846;28;20053;-80
2021/12/27 10:05:24;;;;;;;5.22;3.47;;;;;;;;;;10428594;28;20480;-80
2021/12/27 10:10:25;;;;;;;5.47;3.80;;;;;;;;;;10432105;28;20025;-79
2021/12/27 10:15:26;;;;;;;;;;;;;;;;;;10428473;28;20450;-80
2021/12/27 10:20:28;;;;;;;4.50;3.45;;;;;;;;;;10424295;28;19909;-80
2021/12/27 10:25:30;;;;;;;4.43;2.83;;;;;;;;;;10426356;28;20030;-80
2021/12/27 10:30:51;;;;;;;3.88;3.08;;;;;;;;;;10426800;28;20075;-80
2021/12/27 10:35:55;;;;;;;3.72;2.90;;;;;;;;;;10424734;28;20040;-80
2021/12/27 10:40:58;;;;;;;4.72;2.95;;;;;;;;;;10438041;28;20113;-79
2021/12/27 10:46:01;;;;;;;4.32;2.35;;;;;;;;;;10457636;28;20021;-79
2021/12/27 10:51:03;;;;;;;3.90;2.55;;;;;;;;;;10451883;28;20151;-79
2021/12/27 10:56:05;;;;;;;4.45;3.53;;;;;;;;;;10429750;28;20187;-79
2021/12/27 11:01:12;;;;;;;4.20;2.35;;;;;;;;;;10445246;28;20475;-79
2021/12/27 11:06:14;;;;;;;3.67;2.28;;;;;;;;;;10439613;28;20048;-79
2021/12/27 11:11:16;;;;;;;2.83;2.17;;;;;;;;;;10436024;28;20029;-79
2021/12/27 11:16:17;;;;;;;3.10;2.05;;;;;;;;;;10433571;28;20025;-80
2021/12/27 11:21:20;;;;;;;6.22;4.10;;;;;;;;;;10434350;28;20034;-78
2021/12/27 11:26:25;;;;;;;3.72;2.28;;;;;;;;;;10433634;28;20029;-79
2021/12/27 11:31:28;;;;;;;3.60;2.53;;;;;;;;;;10437123;28;20029;-79
2021/12/27 11:36:30;;;;;;;3.13;2.10;;;;;;;;;;10443533;28;20025;-80
2021/12/27 11:41:36;;;;;;;3.58;2.20;;;;;;;;;;10448491;28;20021;-81
2021/12/27 11:46:49;;;;;;;3.17;1.98;;;;;;;;;;10448054;28;20044;-80
2021/12/27 11:51:53;;;;;;;9.82;6.88;;;;;;;;;;10435591;28;20487;-80
2021/12/27 11:56:54;;;;;;;4.05;2.03;;;;;;;;;;10446761;28;20032;-77
2021/12/27 12:01:59;;;;;;;3.78;2.00;;;;;;;;;;10452908;28;20018;-79
2021/12/27 12:07:05;;;;;;;4.68;2.60;;;;;;;;;;10452764;28;20029;-78
2021/12/27 12:12:08;;;;;;;3.60;2.33;;;;;;;;;;10431346;28;20426;-79
2021/12/27 12:17:16;;;;;;;3.00;2.17;;;;;;;;;;10431547;28;20447;-78
2021/12/27 12:22:49;;;;;;;2.75;1.75;;;;;;;;;;10447250;28;20017;-79
2021/12/27 12:28:00;;;;;;;3.00;2.13;;;;;;;;;;10423775;28;20037;-79
2021/12/27 12:33:03;;;;;;;4.03;2.47;;;;;;;;;;10444160;28;20476;-78
2021/12/27 12:38:13;;;;;;;15.93;12.45;;;;;;;;;;10447820;28;20400;-78
2021/12/27 12:43:30;;;;;;;2.65;1.55;;;;;;;;;;10443594;28;20048;-78
2021/12/27 12:48:32;;;;;;;2.58;2.10;;;;;;;;;;10449722;28;20049;-78
2021/12/27 12:53:33;;;;;;;;;;;;;;;;;;10446584;28;20055;-79
2021/12/27 12:58:36;;;;;;;2.88;1.80;;;;;;;;;;10447651;28;19920;-79
2021/12/27 13:03:37;;;;;;;3.70;2.83;;;;;;;;;;10441664;28;20036;-79
2021/12/27 13:08:38;;;;;;;2.42;2.00;;;;;;;;;;10441577;28;20032;-78
2021/12/27 13:13:39;;;;;;;2.72;1.50;;;;;;;;;;10443189;28;20033;-79
2021/12/27 13:18:40;;;;;;;;;;;;;;;;;;10440186;28;20057;-79
2021/12/27 13:23:43;;;;;;;5.05;2.42;;;;;;;;;;10439371;28;19972;-79
2021/12/27 13:28:45;;;;;;;2.55;2.15;;;;;;;;;;10445425;28;20562;-79
2021/12/27 13:33:51;;;;;;;2.47;1.75;;;;;;;;;;10437190;28;20033;-78
2021/12/27 13:39:13;;;;;;;2.67;1.75;;;;;;;;;;10439337;28;20080;-78
2021/12/27 13:44:14;;;;;;;4.28;3.20;;;;;;;;;;10439136;28;20044;-79
2021/12/27 13:49:15;;;;;;;5.07;3.63;;;;;;;;;;10441998;28;20101;-79
2021/12/27 13:54:16;;;;;;;;;;;;;;;;;;10446233;28;20376;-79
2021/12/27 13:59:20;;;;;;;3.08;2.20;;;;;;;;;;10439954;28;19909;-82
2021/12/27 14:04:22;;;;;;;4.57;3.45;;;;;;;;;;10444050;28;20112;-78
2021/12/27 14:09:24;;;;;;;3.65;2.50;;;;;;;;;;10440393;28;20032;-77
2021/12/27 14:14:34;;;;;;;2.42;1.77;;;;;;;;;;10437624;28;20055;-78
2021/12/27 14:19:38;;;;;;;2.72;2.17;;;;;;;;;;10440589;28;20029;-81
2021/12/27 14:24:47;;;;;;;2.65;1.70;;;;;;;;;;10449810;28;20375;-79
2021/12/27 14:30:06;;;;;;;3.20;2.42;;;;;;;;;;10442252;28;20029;-78
2021/12/27 14:35:21;;;;;;;4.97;3.00;;;;;;;;;;10441207;28;20120;-79
2021/12/27 14:40:23;;;;;;;2.70;2.30;;;;;;;;;;10438363;28;20030;-79
2021/12/27 14:45:25;;;;;;;2.17;1.67;;;;;;;;;;10434869;28;20096;-79
2021/12/27 14:50:28;;;;;;;1.70;1.20;;;;;;;;;;10427185;28;20029;-79
2021/12/27 14:55:29;;;;;;;3.20;1.88;;;;;;;;;;10426516;28;20404;-79
2021/12/27 15:00:30;;;;;;;;;;;;;;;;;;10427673;28;20021;-80
2021/12/27 15:05:31;;;;;;;2.28;1.50;;;;;;;;;;10432333;28;19930;-80
2021/12/27 15:10:32;;;;;;;;;;;;;;;;;;10450272;28;20029;-80
2021/12/27 15:15:33;;;;;;;3.35;2.10;;;;;;;;;;10450242;28;19976;-80
2021/12/27 15:20:34;;;;;;;2.97;2.10;;;;;;;;;;10450055;28;20113;-79
2021/12/27 15:25:35;;;;;;;2.55;1.80;;;;;;;;;;10448385;28;20033;-80
2021/12/27 15:30:37;;;;;;;2.90;2.00;;;;;;;;;;10447069;28;20036;-80
2021/12/27 15:36:05;;;;;;;3.28;2.00;;;;;;;;;;10450656;28;20021;-79
2021/12/27 15:41:30;;;;;;;2.35;1.98;;;;;;;;;;10452900;28;20092;-81
2021/12/27 15:46:31;;;;;;;2.33;1.75;;;;;;;;;;10463378;28;20033;-80
2021/12/27 15:51:37;;;;;;;;;;;;;;;;;;10462751;28;20053;-80
2021/12/27 15:56:38;;;;;;;3.15;1.80;;;;;;;;;;10460346;28;19920;-80
2021/12/27 16:01:39;;;;;;;2.72;1.70;;;;;;;;;;10466300;28;20037;-81
2021/12/27 16:06:40;;;;;;;3.20;2.30;;;;;;;;;;10460996;28;20026;-80
2021/12/27 16:11:41;;;;;;;;;;;;;;;;;;10459309;28;20080;-80
2021/12/27 16:16:42;;;;;;;4.10;3.63;;;;;;;;;;10451210;28;19984;-79
2021/12/27 16:21:43;;;;;;;4.13;2.30;;;;;;;;;;10435981;28;20036;-79
2021/12/27 16:26:44;;;;;;;3.10;2.47;;;;;;;;;;10447829;28;20037;-79
2021/12/27 16:31:45;;;;;;;2.88;2.08;;;;;;;;;;10450955;28;20029;-79
2021/12/27 16:36:49;;;;;;;3.95;2.58;;;;;;;;;;10450770;28;20037;-79
2021/12/27 16:41:51;;;;;;;3.15;2.50;;;;;;;;;;10457941;28;20041;-78
2021/12/27 16:46:51;;;;;;;3.97;3.30;;;;;;;;;;10463033;28;20037;-79
2021/12/27 16:51:52;;;;;;;2.72;2.20;;;;;;;;;;10447838;28;20037;-78
2021/12/27 16:56:53;;;;;;;3.80;2.22;;;;;;;;;;10447112;28;20025;-78
2021/12/27 17:01:57;;;;;;;3.88;2.92;;;;;;;;;;10444110;28;20029;-78
2021/12/27 17:06:58;;;;;;;4.43;2.50;;;;;;;;;;10456416;28;20044;-78
2021/12/27 17:11:59;;;;;;;;;;;;;;;;;;10455026;28;20034;-79
2021/12/27 17:17:00;;;;;;;3.15;2.22;;;;;;;;;;10452287;28;19940;-79
2021/12/27 17:22:02;;;;;;;;;;;;;;;;;;10455233;28;20025;-79
2021/12/27 17:27:03;;;;;;;3.03;2.00;;;;;;;;;;10453983;28;19916;-79
2021/12/27 17:32:05;;;;;;;2.45;2.22;;;;;;;;;;10444930;28;20056;-78
2021/12/27 17:37:06;;;;;;;13.43;3.05;;;;;;;;;;10449518;28;20097;-80
2021/12/27 17:42:08;;;;;;;3.50;2.33;;;;;;;;;;10455588;28;20025;-79
2021/12/27 17:47:09;;;;;;;3.45;2.70;;;;;;;;;;10453503;28;20461;-79
2021/12/27 17:52:10;;;;;;;5.45;4.10;;;;;;;;;;10452910;28;20029;-80
2021/12/27 17:57:12;;;;;;;7.95;5.25;;;;;;;;;;10458059;28;20043;-79
2021/12/27 18:02:12;;;;;;;;;;;;;;;;;;10456449;28;20093;-79
2021/12/27 18:07:14;;;;;;;8.07;5.68;;;;;;;;;;10455044;28;19905;-79
2021/12/27 18:12:16;;;;;;;;;;;;;;;;;;10454049;28;20456;-80
2021/12/27 18:17:19;;;;;;;6.60;4.60;;;;;;;;;;10454106;28;19909;-79
2021/12/27 18:22:20;;;;;;;6.85;5.28;;;;;;;;;;10453021;28;20032;-80
2021/12/27 18:27:21;;;;;;;6.82;4.82;;;;;;;;;;10453743;28;20060;-79
2021/12/27 18:32:22;;;;;;;5.63;4.10;;;;;;;;;;10452127;28;20072;-79
2021/12/27 18:37:23;;;;;;;5.40;4.60;;;;;;;;;;10450351;28;20037;-79
2021/12/27 18:42:24;;;;;;;;;;;;;;;;;;10455213;28;20026;-79
2021/12/27 18:47:25;;;;;;;9.90;6.97;;;;;;;;;;10455966;28;19917;-79
2021/12/27 18:52:26;;;;;;;7.13;4.95;;;;;;;;;;10454134;28;20033;-79
2021/12/27 18:57:30;;;;;;;5.50;4.00;;;;;;;;;;10452820;28;20502;-79
2021/12/27 19:02:31;;;;;;;7.03;5.40;;;;;;;;;;10455698;28;20029;-80
2021/12/27 19:07:33;;;;;;;5.63;4.32;;;;;;;;;;10455065;28;20021;-79
2021/12/27 19:12:34;;;;;;;6.32;4.97;;;;;;;;;;10452345;28;20099;-79
2021/12/27 19:17:35;;;;;;;4.53;3.88;;;;;;;;;;10451820;28;20030;-80
2021/12/27 19:22:36;;;;;;;4.40;3.72;;;;;;;;;;10451245;28;20022;-79
2021/12/27 19:27:38;;;;;;;5.43;4.53;;;;;;;;;;10439176;28;20484;-79
2021/12/27 19:32:39;;;;;;;6.25;5.10;;;;;;;;;;10431891;28;20025;-79
2021/12/27 19:37:40;;;;;;;5.80;5.10;;;;;;;;;;10437360;28;20037;-79
2021/12/27 19:42:41;;;;;;;5.90;5.30;;;;;;;;;;10432199;28;20492;-79
2021/12/27 19:47:42;;;;;;;6.53;5.55;;;;;;;;;;10432342;28;20048;-78
2021/12/27 19:52:44;;;;;;;5.20;3.95;;;;;;;;;;10437570;28;20455;-79
2021/12/27 19:57:45;;;;;;;7.25;5.85;;;;;;;;;;10459234;28;20097;-79
2021/12/27 20:02:47;;;;;;;5.45;4.57;;;;;;;;;;10444754;28;20033;-79
2021/12/27 20:07:48;;;;;;;6.53;4.75;;;;;;;;;;10439950;28;20029;-79
2021/12/27 20:12:54;;;;;;;7.03;5.88;;;;;;;;;;10443465;28;20056;-79
2021/12/27 20:17:56;;;;;;;6.28;5.07;;;;;;;;;;10442026;28;20457;-79
2021/12/27 20:22:58;;;;;;;4.85;4.10;;;;;;;;;;10441617;28;20032;-79
2021/12/27 20:27:59;;;;;;;7.68;5.38;;;;;;;;;;10441114;28;20045;-79
2021/12/27 20:33:00;;;;;;;5.28;3.72;;;;;;;;;;10440271;28;20029;-79
2021/12/27 20:38:02;;;;;;;7.25;4.70;;;;;;;;;;10467267;28;20048;-78
2021/12/27 20:43:04;;;;;;;6.72;5.75;;;;;;;;;;10442275;28;20030;-79
2021/12/27 20:48:05;;;;;;;6.82;5.43;;;;;;;;;;10430294;28;20124;-80
2021/12/27 20:53:09;;;;;;;8.35;6.13;;;;;;;;;;10425086;28;20064;-81
2021/12/27 20:58:10;;;;;;;8.88;5.93;;;;;;;;;;10425552;28;20096;-81
2021/12/27 21:03:12;;;;;;;5.68;4.18;;;;;;;;;;10427243;28;20145;-80
2021/12/27 21:08:13;;;;;;;6.30;5.05;;;;;;;;;;10425585;28;20048;-81
2021/12/27 21:13:14;;;;;;;6.70;5.28;;;;;;;;;;10424517;28;20396;-81
